createdAt,value
2023-09-12T00:00:14.868Z,8.63
2023-09-12T00:03:21.314Z,12.60
2023-09-12T00:06:24.195Z,20.10
2023-09-12T00:09:26.971Z,25.98
2023-09-12T00:12:31.038Z,26.48
2023-09-12T00:15:33.738Z,25.42
2023-09-12T00:18:36.621Z,26.17
2023-09-12T00:21:39.443Z,26.00
2023-09-12T00:24:42.103Z,22.20
2023-09-12T00:27:46.092Z,24.30
2023-09-12T00:30:48.778Z,34.28
2023-09-12T00:33:51.510Z,35.25
2023-09-12T00:36:54.316Z,28.58
2023-09-12T00:39:56.916Z,25.85
2023-09-12T00:43:00.945Z,31.27
2023-09-12T00:46:03.642Z,25.05
2023-09-12T00:49:06.400Z,31.13
2023-09-12T00:52:08.985Z,27.90
2023-09-12T00:55:11.677Z,28.23
2023-09-12T00:58:15.697Z,25.30
2023-09-12T01:01:18.443Z,25.15
2023-09-12T01:04:33.979Z,22.13
2023-09-12T01:07:38.222Z,21.27
2023-09-12T01:10:40.853Z,24.75
2023-09-12T01:13:44.891Z,20.02
2023-09-12T01:16:47.532Z,20.90
2023-09-12T01:19:50.344Z,21.42
2023-09-12T01:22:59.960Z,19.92
2023-09-12T01:26:31.240Z,20.05
2023-09-12T01:29:35.277Z,22.42
2023-09-12T01:32:37.936Z,20.23
2023-09-12T01:35:40.588Z,22.98
2023-09-12T01:38:43.782Z,15.07
2023-09-12T01:41:46.676Z,15.82
2023-09-12T01:44:52.309Z,19.98
2023-09-12T01:47:55.042Z,20.63
2023-09-12T01:50:57.722Z,20.83
2023-09-12T01:54:00.374Z,20.75
2023-09-12T01:57:03.164Z,19.25
2023-09-12T02:00:09.708Z,17.25
2023-09-12T02:03:12.542Z,21.08
2023-09-12T02:06:15.358Z,13.48
2023-09-12T02:09:18.126Z,15.10
2023-09-12T02:12:20.815Z,13.00
2023-09-12T02:15:24.836Z,10.80
2023-09-12T02:18:27.601Z,10.95
2023-09-12T02:21:30.450Z,14.30
2023-09-12T02:24:33.252Z,13.82
2023-09-12T02:27:35.955Z,13.75
2023-09-12T02:30:42.368Z,13.02
2023-09-12T02:33:45.132Z,13.57
2023-09-12T02:36:47.848Z,13.45
2023-09-12T02:39:50.446Z,13.80
2023-09-12T02:42:53.089Z,17.50
2023-09-12T02:45:57.126Z,18.60
2023-09-12T02:48:59.866Z,12.57
2023-09-12T02:52:02.708Z,13.10
2023-09-12T02:55:06.091Z,16.45
2023-09-12T02:58:08.672Z,13.38
2023-09-12T03:01:18.169Z,13.32
2023-09-12T03:04:20.849Z,22.63
2023-09-12T03:07:23.521Z,14.40
2023-09-12T03:10:26.176Z,15.70
2023-09-12T03:13:30.475Z,13.90
2023-09-12T03:16:34.665Z,15.63
2023-09-12T03:19:37.369Z,16.00
2023-09-12T03:22:40.185Z,17.25
2023-09-12T03:25:42.814Z,18.67
2023-09-12T03:28:45.638Z,20.05
2023-09-12T03:31:49.808Z,19.73
2023-09-12T03:34:52.606Z,19.85
2023-09-12T03:37:55.275Z,19.88
2023-09-12T03:40:57.925Z,22.05
2023-09-12T03:44:00.572Z,19.60
2023-09-12T03:47:04.932Z,19.90
2023-09-12T03:50:09.091Z,18.30
2023-09-12T03:53:11.776Z,15.55
2023-09-12T03:56:15.228Z,16.17
2023-09-12T03:59:17.905Z,16.00
2023-09-12T04:02:22.028Z,13.65
2023-09-12T04:05:24.705Z,10.38
2023-09-12T04:08:27.409Z,17.73
2023-09-12T04:11:40.162Z,23.15
2023-09-12T04:14:51.476Z,25.42
2023-09-12T04:17:55.530Z,18.17
2023-09-12T04:20:58.861Z,20.98
2023-09-12T04:24:01.510Z,18.00
2023-09-12T04:27:04.560Z,17.77
2023-09-12T04:30:10.097Z,16.67
2023-09-12T04:33:14.417Z,15.30
2023-09-12T04:36:17.117Z,16.50
2023-09-12T04:39:19.913Z,20.02
2023-09-12T04:42:22.692Z,21.35
2023-09-12T04:45:25.446Z,19.27
2023-09-12T04:48:29.945Z,22.08
2023-09-12T04:51:32.685Z,22.25
2023-09-12T04:54:35.390Z,30.00
2023-09-12T04:57:39.929Z,31.35
2023-09-12T05:00:44.072Z,32.55
2023-09-12T05:03:48.262Z,32.50
2023-09-12T05:06:50.974Z,35.15
2023-09-12T05:09:53.757Z,27.10
2023-09-12T05:12:56.428Z,25.95
2023-09-12T05:15:59.131Z,23.05
2023-09-12T05:19:03.289Z,26.60
2023-09-12T05:22:06.053Z,30.52
2023-09-12T05:25:09.495Z,34.25
2023-09-12T05:28:12.185Z,30.80
2023-09-12T05:31:14.801Z,30.33
2023-09-12T05:34:19.238Z,26.70
2023-09-12T05:37:22.293Z,22.15
2023-09-12T05:40:24.995Z,26.92
2023-09-12T05:43:27.845Z,25.02
2023-09-12T05:46:30.512Z,26.38
2023-09-12T05:49:35.431Z,29.48
2023-09-12T05:52:38.192Z,25.95
2023-09-12T05:55:40.850Z,27.20
2023-09-12T05:58:44.178Z,24.67
2023-09-12T06:01:47.322Z,24.33
2023-09-12T06:04:51.582Z,23.65
2023-09-12T06:07:54.360Z,28.67
2023-09-12T06:10:57.419Z,25.45
2023-09-12T06:14:00.108Z,25.67
2023-09-12T06:17:03.091Z,21.52
2023-09-12T06:20:08.678Z,15.90
2023-09-12T06:23:11.508Z,17.13
2023-09-12T06:26:14.166Z,22.40
2023-09-12T06:29:16.911Z,28.80
2023-09-12T06:32:19.711Z,19.63
2023-09-12T06:35:23.724Z,17.55
2023-09-12T06:38:26.493Z,18.20
2023-09-12T06:41:29.359Z,21.85
2023-09-12T06:44:31.986Z,17.98
2023-09-12T06:47:34.781Z,17.05
2023-09-12T06:50:39.905Z,19.50
2023-09-12T06:53:42.629Z,23.55
2023-09-12T06:56:45.560Z,26.60
2023-09-12T06:59:49.149Z,26.55
2023-09-12T07:02:52.166Z,23.55
2023-09-12T07:05:56.332Z,22.60
2023-09-12T07:08:58.912Z,23.40
2023-09-12T07:12:01.576Z,25.88
2023-09-12T07:15:04.758Z,14.27
2023-09-12T07:18:07.818Z,20.88
2023-09-12T07:21:12.476Z,23.25
2023-09-12T07:24:15.225Z,24.05
2023-09-12T07:27:17.876Z,20.70
2023-09-12T07:30:20.673Z,20.80
2023-09-12T07:33:23.527Z,20.92
2023-09-12T07:36:27.636Z,21.58
2023-09-12T07:39:30.612Z,18.95
2023-09-12T07:42:33.738Z,17.85
2023-09-12T07:45:38.828Z,18.58
2023-09-12T07:48:41.681Z,18.15
2023-09-12T07:51:45.764Z,19.67
2023-09-12T07:54:48.476Z,19.73
2023-09-12T07:57:51.183Z,18.00
2023-09-12T08:00:53.989Z,13.20
2023-09-12T08:03:56.697Z,14.20
2023-09-12T08:07:01.774Z,18.38
2023-09-12T08:10:05.033Z,14.32
2023-09-12T08:13:07.708Z,18.33
2023-09-12T08:16:10.450Z,13.70
2023-09-12T08:19:15.886Z,19.23
2023-09-12T08:22:21.275Z,21.88
2023-09-12T08:25:25.578Z,15.75
2023-09-12T08:28:28.257Z,21.88
2023-09-12T08:31:30.962Z,19.67
2023-09-12T08:34:33.923Z,20.88
2023-09-12T08:37:37.961Z,20.88
2023-09-12T08:40:40.682Z,20.13
2023-09-12T08:43:44.626Z,20.83
2023-09-12T08:46:47.507Z,19.08
2023-09-12T08:49:50.301Z,19.73
2023-09-12T08:53:04.285Z,20.95
2023-09-12T08:56:09.664Z,20.40
2023-09-12T08:59:12.766Z,21.20
2023-09-12T09:02:15.486Z,21.17
2023-09-12T09:05:18.220Z,22.35
2023-09-12T09:08:23.880Z,20.92
2023-09-12T09:11:28.789Z,20.15
2023-09-12T09:14:32.016Z,17.75
2023-09-12T09:17:36.318Z,17.65
2023-09-12T09:20:42.077Z,13.85
2023-09-12T09:23:48.309Z,13.38
2023-09-12T09:26:51.648Z,17.67
2023-09-12T09:29:54.268Z,17.15
2023-09-12T09:32:56.892Z,15.07
2023-09-12T09:36:04.612Z,16.65
2023-09-12T09:39:08.923Z,17.52
2023-09-12T09:42:12.832Z,13.63
2023-09-12T09:45:15.747Z,16.02
2023-09-12T09:48:21.705Z,14.65
2023-09-12T09:51:24.414Z,13.10
2023-09-12T09:54:28.706Z,11.40
2023-09-12T09:57:31.537Z,10.63
2023-09-12T10:00:35.573Z,11.52
2023-09-12T10:03:38.669Z,9.98
2023-09-12T10:06:41.500Z,8.88
2023-09-12T10:09:45.580Z,9.13
2023-09-12T10:12:51.530Z,8.23
2023-09-12T10:15:54.301Z,9.43
2023-09-12T10:19:00.627Z,9.70
2023-09-12T10:22:06.253Z,10.35
2023-09-12T10:25:10.597Z,10.35
2023-09-12T10:28:13.228Z,9.35
2023-09-12T10:31:15.972Z,8.77
2023-09-12T10:34:19.352Z,8.80
2023-09-12T10:37:23.500Z,7.28
2023-09-12T10:40:27.663Z,7.70
2023-09-12T10:43:30.544Z,6.40
2023-09-12T10:46:33.290Z,6.72
2023-09-12T10:49:36.010Z,6.65
2023-09-12T10:52:40.895Z,7.53
2023-09-12T10:55:45.032Z,8.55
2023-09-12T10:59:13.314Z,7.03
2023-09-12T11:02:32.662Z,8.30
2023-09-12T11:05:39.098Z,8.43
2023-09-12T11:08:42.307Z,7.55
2023-09-12T11:11:47.684Z,7.45
2023-09-12T11:15:06.630Z,8.82
2023-09-12T11:18:09.509Z,7.35
2023-09-12T11:21:12.225Z,8.80
2023-09-12T11:24:14.980Z,7.32
2023-09-12T11:27:19.257Z,7.50
2023-09-12T11:30:22.161Z,6.97
2023-09-12T11:33:25.598Z,7.50
2023-09-12T11:36:28.496Z,8.30
2023-09-12T11:39:32.213Z,8.00
2023-09-12T11:42:36.322Z,7.72
2023-09-12T11:45:39.127Z,6.75
2023-09-12T11:48:41.931Z,7.45
2023-09-12T11:51:54.265Z,7.28
2023-09-12T11:54:56.991Z,7.45
2023-09-12T11:58:01.106Z,7.45
2023-09-12T12:01:04.316Z,10.45
2023-09-12T12:04:08.247Z,11.70
2023-09-12T12:07:12.405Z,10.57
2023-09-12T12:10:15.330Z,8.98
2023-09-12T12:13:19.830Z,10.27
2023-09-12T12:16:23.937Z,10.52
2023-09-12T12:19:27.935Z,11.32
2023-09-12T12:22:30.643Z,9.45
2023-09-12T12:25:34.224Z,9.00
2023-09-12T12:28:38.334Z,6.60
2023-09-12T12:31:41.149Z,7.60
2023-09-12T12:35:23.354Z,8.18
2023-09-12T12:38:08.292Z,7.57
2023-09-12T12:41:11.649Z,6.28
2023-09-12T12:44:16.961Z,6.78
2023-09-12T12:47:19.695Z,6.50
2023-09-12T12:50:22.969Z,5.88
2023-09-12T12:53:50.248Z,13.38
2023-09-12T12:56:55.373Z,12.07
2023-09-12T13:00:00.726Z,12.18
2023-09-12T13:03:04.480Z,12.40
2023-09-12T13:06:08.920Z,12.65
2023-09-12T13:09:12.474Z,12.25
2023-09-12T13:12:15.878Z,13.02
2023-09-12T13:15:20.816Z,11.95
2023-09-12T13:18:23.687Z,12.05
2023-09-12T13:21:26.437Z,12.32
2023-09-12T13:24:29.084Z,10.48
2023-09-12T13:27:31.833Z,10.73
2023-09-12T13:30:35.862Z,10.02
2023-09-12T13:33:38.541Z,9.82
2023-09-12T13:36:41.282Z,9.32
2023-09-12T13:39:48.543Z,11.63
2023-09-12T13:42:51.286Z,13.20
2023-09-12T13:45:55.294Z,12.93
2023-09-12T13:49:01.536Z,12.25
2023-09-12T13:52:04.844Z,12.60
2023-09-12T13:55:07.998Z,13.57
2023-09-12T13:58:10.757Z,13.25
2023-09-12T14:01:27.900Z,13.70
2023-09-12T14:04:34.321Z,13.18
2023-09-12T14:07:38.061Z,12.07
2023-09-12T14:10:42.235Z,10.50
2023-09-12T14:13:45.998Z,9.73
2023-09-12T14:16:50.895Z,8.38
2023-09-12T14:19:55.020Z,8.02
2023-09-12T14:22:59.247Z,6.60
2023-09-12T14:26:02.992Z,7.70
2023-09-12T14:29:06.382Z,8.55
2023-09-12T14:32:10.508Z,8.18
2023-09-12T14:35:13.081Z,7.65
2023-09-12T14:38:15.720Z,7.70
2023-09-12T14:41:18.365Z,8.40
2023-09-12T14:44:21.060Z,7.60
2023-09-12T14:47:25.279Z,7.30
2023-09-12T14:50:39.346Z,7.97
2023-09-12T14:53:45.713Z,6.72
2023-09-12T14:56:48.631Z,8.18
2023-09-12T14:59:52.517Z,8.25
2023-09-12T15:02:56.657Z,7.88
2023-09-12T15:05:59.552Z,7.20
2023-09-12T15:09:02.290Z,7.00
2023-09-12T15:12:05.454Z,7.18
2023-09-12T15:15:09.608Z,7.22
2023-09-12T15:18:13.703Z,6.32
2023-09-12T15:21:16.413Z,5.85
2023-09-12T15:24:19.082Z,5.53
2023-09-12T15:27:21.736Z,5.32
2023-09-12T15:30:24.525Z,4.95
2023-09-12T15:33:28.901Z,3.95
2023-09-12T15:36:31.723Z,3.65
2023-09-12T15:39:34.472Z,3.83
2023-09-12T15:42:38.035Z,3.75
2023-09-12T15:45:50.785Z,3.38
2023-09-12T15:48:55.930Z,3.67
2023-09-12T15:51:59.156Z,3.72
2023-09-12T15:55:01.890Z,2.75
2023-09-12T15:58:04.819Z,2.65
2023-09-12T16:01:07.661Z,2.90
2023-09-12T16:04:11.756Z,2.75
2023-09-12T16:07:14.653Z,3.38
2023-09-12T16:10:17.484Z,3.03
2023-09-12T16:13:20.123Z,2.97
2023-09-12T16:16:22.952Z,3.17
2023-09-12T16:19:27.090Z,3.42
2023-09-12T16:22:29.740Z,3.20
2023-09-12T16:25:32.403Z,3.20
2023-09-12T16:28:35.106Z,3.33
2023-09-12T16:31:38.037Z,3.45
2023-09-12T16:34:42.225Z,3.50
2023-09-12T16:37:45.350Z,3.45
2023-09-12T16:40:48.355Z,3.35
2023-09-12T16:43:51.012Z,3.03
2023-09-12T16:46:53.852Z,3.55
2023-09-12T16:49:58.292Z,4.05
2023-09-12T16:53:00.989Z,3.75
2023-09-12T16:56:03.696Z,3.83
2023-09-12T16:59:06.326Z,3.72
2023-09-12T17:02:11.319Z,3.90
2023-09-12T17:05:15.327Z,4.03
2023-09-12T17:08:18.015Z,4.50
2023-09-12T17:11:21.221Z,4.78
2023-09-12T17:14:23.848Z,4.03
2023-09-12T17:17:26.518Z,5.28
2023-09-12T17:20:30.708Z,5.35
2023-09-12T17:23:33.395Z,4.82
2023-09-12T17:26:36.088Z,5.25
2023-09-12T17:29:38.797Z,5.45
2023-09-12T17:32:41.467Z,6.55
2023-09-12T17:35:45.524Z,6.80
2023-09-12T17:38:48.529Z,6.00
2023-09-12T17:41:51.242Z,6.13
2023-09-12T17:44:53.973Z,7.20
2023-09-12T17:47:56.712Z,8.05
2023-09-12T17:51:00.767Z,7.60
2023-09-12T17:54:03.500Z,7.93
2023-09-12T17:57:06.730Z,7.45
2023-09-12T18:00:10.438Z,7.38
2023-09-12T18:03:13.220Z,9.38
2023-09-12T18:06:17.324Z,7.70
2023-09-12T18:09:19.952Z,8.93
2023-09-12T18:12:22.588Z,8.50
2023-09-12T18:15:25.774Z,8.40
2023-09-12T18:18:28.487Z,8.20
2023-09-12T18:21:32.582Z,8.45
2023-09-12T18:24:35.373Z,6.95
2023-09-12T18:27:38.176Z,6.85
2023-09-12T18:30:41.687Z,6.88
2023-09-12T18:33:44.658Z,7.03
2023-09-12T18:36:48.968Z,7.75
2023-09-12T18:39:51.680Z,6.50
2023-09-12T18:42:54.496Z,6.43
2023-09-12T18:45:57.338Z,7.43
2023-09-12T18:49:00.081Z,7.28
2023-09-12T18:52:04.152Z,6.55
2023-09-12T18:55:07.985Z,7.15
2023-09-12T18:58:11.620Z,6.63
2023-09-12T19:01:14.356Z,7.25
2023-09-12T19:04:24.648Z,7.20
2023-09-12T19:07:28.894Z,7.70
2023-09-12T19:10:31.609Z,7.15
2023-09-12T19:13:34.670Z,6.68
2023-09-12T19:16:37.325Z,7.15
2023-09-12T19:19:40.007Z,6.78
2023-09-12T19:22:43.967Z,8.23
2023-09-12T19:25:49.028Z,9.20
2023-09-12T19:28:51.768Z,9.27
2023-09-12T19:31:54.553Z,8.60
2023-09-12T19:34:57.335Z,8.90
2023-09-12T19:38:02.875Z,8.95
2023-09-12T19:41:05.735Z,7.50
2023-09-12T19:44:08.484Z,8.80
2023-09-12T19:47:11.166Z,7.47
2023-09-12T19:50:14.093Z,8.68
2023-09-12T19:53:18.388Z,7.72
2023-09-12T19:56:21.032Z,8.05
2023-09-12T19:59:23.762Z,7.47
2023-09-12T20:02:26.464Z,9.20
2023-09-12T20:05:29.179Z,7.28
2023-09-12T20:08:33.180Z,7.22
2023-09-12T20:11:35.888Z,7.50
2023-09-12T20:14:38.590Z,6.97
2023-09-12T20:17:41.625Z,7.15
2023-09-12T20:20:46.338Z,7.63
2023-09-12T20:23:50.375Z,7.07
2023-09-12T20:26:53.128Z,6.05
2023-09-12T20:29:55.946Z,6.47
2023-09-12T20:33:02.197Z,5.75
2023-09-12T20:36:05.144Z,5.97
2023-09-12T20:39:25.733Z,5.13
2023-09-12T20:42:28.378Z,4.88
2023-09-12T20:45:31.082Z,5.43
2023-09-12T20:48:36.385Z,4.93
2023-09-12T20:51:39.898Z,4.97
2023-09-12T20:54:44.008Z,5.45
2023-09-12T20:57:46.840Z,5.10
2023-09-12T21:00:49.598Z,5.22
2023-09-12T21:03:52.575Z,5.35
2023-09-12T21:06:55.454Z,4.05
2023-09-12T21:09:59.547Z,5.65
2023-09-12T21:13:03.612Z,4.90
2023-09-12T21:16:07.172Z,4.60
2023-09-12T21:19:10.002Z,5.18
2023-09-12T21:22:12.673Z,4.78
2023-09-12T21:25:16.891Z,4.43
2023-09-12T21:28:20.011Z,4.95
2023-09-12T21:31:22.883Z,4.32
2023-09-12T21:34:25.616Z,4.57
2023-09-12T21:37:28.373Z,7.30
2023-09-12T21:40:32.372Z,5.40
2023-09-12T21:43:34.974Z,5.45
2023-09-12T21:46:37.789Z,4.63
2023-09-12T21:49:40.531Z,4.53
2023-09-12T21:52:43.746Z,4.72
2023-09-12T21:55:49.128Z,5.10
2023-09-12T21:58:51.775Z,4.15
2023-09-12T22:01:54.539Z,3.85
2023-09-12T22:04:57.189Z,4.25
2023-09-12T22:07:59.875Z,3.53
2023-09-12T22:11:04.646Z,2.60
2023-09-12T22:14:07.358Z,3.35
2023-09-12T22:17:10.083Z,4.03
2023-09-12T22:20:16.703Z,3.10
2023-09-12T22:26:23.769Z,4.38
2023-09-12T22:29:26.504Z,3.85
2023-09-12T22:32:29.439Z,3.60
2023-09-12T22:35:32.107Z,3.78
2023-09-12T22:38:35.029Z,3.47
2023-09-12T22:41:39.081Z,3.22
2023-09-12T22:44:41.840Z,3.83
2023-09-12T22:47:44.528Z,4.30
2023-09-12T22:50:48.668Z,4.25
2023-09-12T22:53:51.326Z,3.60
2023-09-12T22:56:55.263Z,3.67
2023-09-12T22:59:58.010Z,4.25
2023-09-12T23:03:00.712Z,3.53
2023-09-12T23:06:04.011Z,4.20
2023-09-12T23:09:06.745Z,3.17
2023-09-12T23:12:10.925Z,3.83
2023-09-12T23:15:13.646Z,4.07
2023-09-12T23:18:16.782Z,3.75
2023-09-12T23:21:19.409Z,3.33
2023-09-12T23:24:22.061Z,4.03
2023-09-12T23:27:26.112Z,4.00
2023-09-12T23:30:28.828Z,3.72
2023-09-12T23:33:31.462Z,4.03
2023-09-12T23:36:34.110Z,4.32
2023-09-12T23:39:36.811Z,3.67
2023-09-12T23:42:43.075Z,4.30
2023-09-12T23:45:45.780Z,3.95
2023-09-12T23:48:48.487Z,3.95
2023-09-12T23:51:51.279Z,4.32
2023-09-12T23:54:54.034Z,4.18
2023-09-12T23:57:58.187Z,2.47
